Time;durP1;ratioP1;P1;durP2;ratioP2;P2;SDS_P1;SDS_P2;PMS_P1;PMS_P2;Temp;Humidity;BMP_temperature;BMP_pressure;BME280_temperature;BME280_humidity;BME280_pressure;Samples;Min_cycle;Max_cycle;Signal;HPM_P1;HPM_P2
2023/02/15 00:03:21;;;;;;;142.57;36.03;;;;;;;1.63;67.78;101420.38;10419994;28;20053;-62
2023/02/15 00:08:23;;;;;;;106.35;31.80;;;;;;;1.46;67.73;101410.06;10424048;28;21121;-62
2023/02/15 00:13:25;;;;;;;125.75;32.20;;;;;;;1.41;67.99;101413.47;10419946;28;20049;-62
2023/02/15 00:18:26;;;;;;;120.43;33.03;;;;;;;1.20;67.97;101414.31;10422498;28;20056;-63
2023/02/15 00:23:28;;;;;;;117.75;33.88;;;;;;;1.30;68.16;101421.19;10430795;28;20049;-63
2023/02/15 00:28:30;;;;;;;101.47;31.00;;;;;;;1.51;67.89;101402.31;10423398;28;20045;-62
2023/02/15 00:33:32;;;;;;;106.55;31.50;;;;;;;1.57;67.68;101405.75;10423913;28;20037;-62
2023/02/15 00:38:34;;;;;;;96.63;30.10;;;;;;;1.53;67.54;101405.75;10423939;28;20053;-63
2023/02/15 00:43:36;;;;;;;115.93;29.25;;;;;;;1.47;67.64;101396.31;10422916;28;20044;-62
2023/02/15 00:48:38;;;;;;;190.38;31.48;;;;;;;1.44;67.40;101396.31;10419906;28;20651;-62
2023/02/15 00:53:40;;;;;;;351.98;35.33;;;;;;;1.23;67.57;101393.72;10421401;28;20049;-62
2023/02/15 00:58:42;;;;;;;197.18;31.60;;;;;;;1.35;67.81;101392.00;10420699;28;20064;-62
2023/02/15 01:03:46;;;;;;;93.53;29.73;;;;;;;1.47;67.82;101392.84;10422814;28;20949;-62
2023/02/15 01:08:48;;;;;;;204.93;33.05;;;;;;;1.27;67.58;101390.28;10422206;28;20051;-62
2023/02/15 01:13:56;;;;;;;182.77;31.60;;;;;;;0.88;68.11;101391.06;10419696;28;20045;-62
2023/02/15 01:18:57;;;;;;;236.00;35.67;;;;;;;0.96;68.16;101398.81;10420834;28;20045;-62
2023/02/15 01:23:59;;;;;;;316.60;36.78;;;;;;;0.93;68.16;101402.22;10421668;28;20060;-62
2023/02/15 01:29:01;;;;;;;128.65;30.85;;;;;;;0.84;68.25;101394.47;10421886;28;20131;-62
2023/02/15 01:34:02;;;;;;;226.57;31.67;;;;;;;0.89;68.16;101384.19;10416503;28;20703;-62
2023/02/15 01:39:04;;;;;;;311.08;32.00;;;;;;;1.05;68.23;101378.22;10420638;28;20056;-62
2023/02/15 01:44:43;;;;;;;152.40;28.65;;;;;;;1.06;68.55;101372.19;10421704;28;20041;-62
2023/02/15 01:49:46;;;;;;;420.10;38.90;;;;;;;0.84;68.21;101379.03;10426731;28;20049;-62
2023/02/15 01:54:48;;;;;;;283.33;35.55;;;;;;;0.78;68.46;101376.44;10425769;28;20053;-62
2023/02/15 01:59:54;;;;;;;183.57;28.60;;;;;;;0.90;68.45;101373.91;10424732;28;20060;-62
2023/02/15 02:05:06;;;;;;;256.58;31.77;;;;;;;0.76;68.35;101375.56;10421868;28;20052;-62
2023/02/15 02:10:08;;;;;;;;;;;;;;;0.64;69.07;101378.13;10423171;28;20049;-62
2023/02/15 02:15:11;;;;;;;133.93;28.88;;;;;;;0.65;68.46;101373.84;10421519;28;19925;-63
2023/02/15 02:20:41;;;;;;;158.45;28.88;;;;;;;0.78;68.80;101373.88;10421895;28;20147;-62
2023/02/15 02:26:20;;;;;;;180.27;32.45;;;;;;;0.82;68.32;101365.28;10387567;28;20044;-62
2023/02/15 02:31:49;;;;;;;171.80;29.45;;;;;;;0.47;68.88;101365.19;10418254;28;20049;-62
2023/02/15 02:36:54;;;;;;;141.23;26.25;;;;;;;0.46;68.85;101357.47;10421216;28;20045;-62
2023/02/15 02:42:42;;;;;;;85.72;26.25;;;;;;;0.67;68.86;101351.53;10416900;28;20075;-63
2023/02/15 02:47:51;;;;;;;172.88;26.23;;;;;;;0.70;68.49;101344.66;10410733;28;20207;-63
2023/02/15 02:52:55;;;;;;;94.45;26.15;;;;;;;0.83;68.64;101338.66;10419465;28;20584;-62
2023/02/15 02:58:05;;;;;;;187.73;30.52;;;;;;;0.87;68.53;101326.69;10423266;28;20063;-62
2023/02/15 03:03:14;;;;;;;192.35;31.30;;;;;;;0.74;68.45;101333.50;10424886;28;20056;-62
2023/02/15 03:08:21;;;;;;;170.27;28.17;;;;;;;0.59;68.84;101324.91;10428784;28;20045;-62
2023/02/15 03:13:24;;;;;;;96.18;25.85;;;;;;;0.84;68.73;101314.66;10425833;28;20053;-62
2023/02/15 03:18:31;;;;;;;106.28;25.55;;;;;;;1.01;68.10;101318.13;10427774;28;20041;-62
2023/02/15 03:23:35;;;;;;;158.75;29.88;;;;;;;0.96;68.29;101306.06;10425950;28;20041;-62
2023/02/15 03:28:48;;;;;;;136.48;29.48;;;;;;;1.04;68.47;101312.97;10428196;28;20045;-62
2023/02/15 03:34:03;;;;;;;141.95;28.13;;;;;;;1.01;68.01;101302.66;10426331;28;20037;-62
2023/02/15 03:39:24;;;;;;;157.65;29.63;;;;;;;0.97;67.94;101293.19;10433111;28;20053;-62
2023/02/15 03:44:30;;;;;;;83.30;25.45;;;;;;;0.72;68.43;101293.16;10435247;28;20568;-63
2023/02/15 03:49:55;;;;;;;75.97;25.10;;;;;;;0.79;68.21;101282.03;10440807;28;20106;-63
2023/02/15 03:54:57;;;;;;;83.97;24.98;;;;;;;0.82;68.48;101290.63;10438215;28;20068;-63
2023/02/15 04:05:21;;;;;;;59.50;23.02;;;;;;;0.76;68.76;101292.31;10430937;28;20049;-63
2023/02/15 04:26:23;;;;;;;82.43;25.73;;;;;;;0.61;68.52;101293.13;10431379;28;20405;-62
2023/02/15 04:31:25;;;;;;;63.47;23.27;;;;;;;0.80;68.49;101292.31;10426960;28;20048;-63
2023/02/15 04:36:27;;;;;;;74.75;25.05;;;;;;;1.03;68.32;101302.66;10425703;28;20056;-63
2023/02/15 04:41:28;;;;;;;97.60;25.15;;;;;;;1.08;67.79;101286.34;10427768;28;20380;-63
2023/02/15 04:46:30;;;;;;;87.05;25.20;;;;;;;1.08;67.63;101290.63;10426829;28;20045;-63
2023/02/15 04:51:32;;;;;;;55.65;22.13;;;;;;;0.97;67.89;101288.03;10427690;28;20332;-62
2023/02/15 04:56:34;;;;;;;91.82;25.17;;;;;;;0.76;67.86;101285.47;10427131;28;20056;-63
2023/02/15 05:01:36;;;;;;;78.32;24.92;;;;;;;0.90;67.89;101278.59;10425150;28;20337;-63
2023/02/15 05:06:37;;;;;;;63.25;23.63;;;;;;;1.00;67.85;101271.72;10428268;28;20044;-63
2023/02/15 05:11:39;;;;;;;49.70;22.45;;;;;;;0.98;67.86;101263.16;10425848;28;20049;-63
2023/02/15 05:16:41;;;;;;;50.78;22.27;;;;;;;1.14;67.38;101263.16;10426408;28;20064;-63
2023/02/15 05:21:43;;;;;;;41.63;20.20;;;;;;;1.23;67.30;101255.44;10425344;28;20485;-62
2023/02/15 05:32:05;;;;;;;54.05;22.13;;;;;;;1.15;67.40;101264.88;10421749;28;20577;-63
2023/02/15 05:37:07;;;;;;;59.92;23.95;;;;;;;1.27;67.40;101271.75;10424062;28;20049;-62
2023/02/15 05:42:09;;;;;;;48.97;22.38;;;;;;;1.26;67.23;101260.56;10421064;28;20052;-62
2023/02/15 05:47:10;;;;;;;67.82;23.80;;;;;;;1.30;67.17;101262.28;10424904;28;20055;-62
2023/02/15 05:52:12;;;;;;;70.30;23.83;;;;;;;1.30;67.05;101261.41;10423000;28;20049;-63
2023/02/15 05:57:13;;;;;;;52.25;23.13;;;;;;;1.32;67.21;101259.69;10424024;28;20477;-63
2023/02/15 06:02:15;;;;;;;70.97;24.73;;;;;;;1.35;66.90;101264.84;10420376;28;20060;-62
2023/02/15 06:07:17;;;;;;;65.97;25.25;;;;;;;1.27;67.04;101264.88;10422115;28;20059;-62
2023/02/15 06:12:19;;;;;;;54.78;24.08;;;;;;;1.42;67.26;101273.44;10421520;28;20048;-63
2023/02/15 06:17:21;;;;;;;45.60;21.50;;;;;;;1.40;66.92;101270.84;10422669;28;20045;-63
2023/02/15 06:22:23;;;;;;;66.80;25.35;;;;;;;1.18;66.85;101287.19;10418892;28;20045;-62
2023/02/15 06:27:24;;;;;;;45.60;22.30;;;;;;;1.11;67.32;101276.03;10422731;28;20056;-62
2023/02/15 06:32:26;;;;;;;49.22;23.55;;;;;;;1.10;67.25;101273.44;10421374;28;20045;-63
2023/02/15 06:37:28;;;;;;;42.72;22.58;;;;;;;1.29;66.88;101278.63;10423880;28;20047;-63
2023/02/15 06:42:30;;;;;;;45.45;22.15;;;;;;;1.40;66.79;101275.16;10417905;28;20053;-63
2023/02/15 06:47:31;;;;;;;45.38;22.42;;;;;;;1.47;66.45;101272.56;10420414;28;20049;-62
2023/02/15 06:52:33;;;;;;;43.28;21.63;;;;;;;1.50;66.44;101280.31;10417089;28;20044;-62
2023/02/15 06:57:35;;;;;;;39.55;20.63;;;;;;;1.48;66.53;101276.00;10417196;28;20037;-62
2023/02/15 07:02:36;;;;;;;42.47;22.38;;;;;;;1.27;66.31;101276.88;10420554;28;20064;-62
2023/02/15 07:07:38;;;;;;;57.92;24.73;;;;;;;1.18;66.81;101271.72;10420527;28;20063;-63
2023/02/15 07:12:44;;;;;;;41.50;21.88;;;;;;;1.36;66.71;101272.56;10418926;28;20040;-63
2023/02/15 07:17:46;;;;;;;44.20;22.83;;;;;;;1.38;66.66;101283.75;10419723;28;20055;-62
2023/02/15 07:22:48;;;;;;;52.60;22.98;;;;;;;1.46;66.68;101288.03;10420286;28;20049;-63
2023/02/15 07:27:56;;;;;;;55.40;23.92;;;;;;;1.52;66.52;101273.44;10448459;28;20052;-63
2023/02/15 07:38:18;;;;;;;42.17;21.50;;;;;;;1.31;67.17;101279.47;10419967;28;20076;-63
2023/02/15 07:43:20;;;;;;;40.97;21.50;;;;;;;1.35;66.78;101277.75;10418741;28;20045;-62
2023/02/15 07:48:22;;;;;;;52.22;23.23;;;;;;;1.55;66.96;101269.97;10421228;28;20049;-62
2023/02/15 07:53:25;;;;;;;40.38;21.25;;;;;;;1.66;66.65;101281.13;10418467;28;20051;-63
2023/02/15 07:58:50;;;;;;;39.53;21.00;;;;;;;1.64;66.31;101281.16;10419619;28;20500;-63
2023/02/15 08:03:49;;;;;;;47.53;22.20;;;;;;;1.79;66.13;101277.66;10418701;28;20581;-63
2023/02/15 08:08:51;;;;;;;43.85;21.90;;;;;;;1.84;65.88;101266.47;10420008;28;20877;-63
2023/02/15 08:13:56;;;;;;;42.17;21.70;;;;;;;1.94;65.94;101257.84;10411155;28;20064;-63
2023/02/15 08:19:00;;;;;;;41.20;20.70;;;;;;;1.79;66.08;101259.59;10417037;28;20056;-63
2023/02/15 08:24:03;;;;;;;44.85;22.30;;;;;;;1.68;66.08;101249.34;10418411;28;20053;-63
2023/02/15 08:29:06;;;;;;;40.25;22.17;;;;;;;1.90;66.17;101237.22;10425109;28;20060;-63
2023/02/15 08:34:11;;;;;;;41.47;20.67;;;;;;;2.07;65.79;101232.84;10415802;28;20452;-63
2023/02/15 08:39:14;;;;;;;45.22;21.75;;;;;;;2.02;65.87;101230.28;10422596;28;20049;-63
2023/02/15 08:44:18;;;;;;;40.53;21.30;;;;;;;2.20;65.86;101219.00;10451035;28;20052;-63
2023/02/15 08:49:21;;;;;;;43.50;21.77;;;;;;;2.05;65.02;101225.09;10421249;28;20051;-63
2023/02/15 08:54:22;;;;;;;41.10;21.42;;;;;;;1.96;65.58;101208.81;10419371;28;20182;-63
2023/02/15 08:59:26;;;;;;;40.95;22.05;;;;;;;1.97;65.85;101210.53;10425554;28;20092;-63
2023/02/15 09:04:28;;;;;;;39.83;21.02;;;;;;;2.10;65.84;101207.88;10421431;28;20070;-62
2023/02/15 09:09:31;;;;;;;40.50;21.25;;;;;;;2.22;65.53;101199.22;10420015;28;20060;-63
2023/02/15 09:14:33;;;;;;;41.17;22.33;;;;;;;2.19;65.29;101200.06;10412890;28;20627;-63
2023/02/15 09:19:35;;;;;;;41.22;21.92;;;;;;;2.48;65.16;101205.06;10421478;28;20056;-63
2023/02/15 09:24:36;;;;;;;37.38;20.90;;;;;;;2.65;64.28;101197.19;10416476;28;21199;-62
2023/02/15 09:29:38;;;;;;;38.25;20.27;;;;;;;2.94;64.19;101190.94;10421223;28;20048;-63
2023/02/15 09:34:40;;;;;;;37.05;20.75;;;;;;;2.80;63.94;101192.78;10418825;28;20041;-63
2023/02/15 09:39:43;;;;;;;36.40;20.67;;;;;;;2.72;63.73;101198.88;10417614;28;20044;-63
2023/02/15 09:45:06;;;;;;;36.50;21.02;;;;;;;2.78;63.51;101198.84;10416620;28;20802;-63
2023/02/15 09:50:34;;;;;;;35.17;20.30;;;;;;;2.93;63.77;101206.44;10419736;28;20059;-63
2023/02/15 09:56:01;;;;;;;34.33;19.88;;;;;;;2.97;62.90;101201.25;10414124;28;20164;-63
2023/02/15 10:01:13;;;;;;;32.33;19.73;;;;;;;3.28;63.09;101206.13;10417229;28;20056;-63
2023/02/15 10:06:31;;;;;;;34.15;21.10;;;;;;;3.55;61.84;101205.84;10415169;28;20065;-63
2023/02/15 10:11:52;;;;;;;36.80;20.92;;;;;;;3.61;61.83;101210.94;10414890;28;20406;-63
2023/02/15 10:16:57;;;;;;;32.80;19.60;;;;;;;3.69;61.67;101212.59;10417437;28;20045;-63
2023/02/15 10:22:18;;;;;;;32.70;20.08;;;;;;;3.90;61.25;101213.22;10418812;28;20071;-62
2023/02/15 10:27:21;;;;;;;32.25;19.83;;;;;;;4.09;61.25;101201.78;10415528;28;20041;-62
2023/02/15 10:32:26;;;;;;;31.67;20.70;;;;;;;4.08;61.12;101200.91;10415243;28;20438;-62
2023/02/15 10:37:46;;;;;;;33.65;20.15;;;;;;;4.31;60.26;101201.44;10417049;28;20538;-62
2023/02/15 10:42:54;;;;;;;32.05;20.23;;;;;;;4.57;60.32;101196.75;10414633;28;20064;-62
2023/02/15 10:48:07;;;;;;;32.17;19.77;;;;;;;4.65;59.65;101200.09;10421389;28;20045;-62
2023/02/15 10:53:26;;;;;;;29.27;18.88;;;;;;;4.57;59.89;101196.75;10422376;28;20053;-62
2023/02/15 10:58:44;;;;;;;30.05;19.85;;;;;;;4.53;59.63;101192.50;10421746;28;20215;-62
2023/02/15 11:04:05;;;;;;;29.83;20.02;;;;;;;4.75;58.98;101194.75;10421613;28;20053;-61
2023/02/15 11:09:15;;;;;;;32.13;19.65;;;;;;;4.95;59.43;101187.50;10424565;28;20049;-62
2023/02/15 11:14:45;;;;;;;30.13;18.63;;;;;;;4.94;58.17;101183.22;10421928;28;20041;-62
2023/02/15 11:20:23;;;;;;;31.75;20.48;;;;;;;4.85;58.41;101178.16;10423530;28;20079;-62
2023/02/15 11:25:33;;;;;;;36.03;20.58;;;;;;;4.87;58.80;101160.84;10421679;28;20106;-62
2023/02/15 11:30:45;;;;;;;28.97;19.17;;;;;;;4.45;59.07;101171.03;10420922;28;20060;-62
2023/02/15 11:35:59;;;;;;;30.63;19.70;;;;;;;4.32;59.83;101159.16;10422480;28;20458;-62
2023/02/15 11:41:14;;;;;;;30.13;18.77;;;;;;;4.43;59.81;101152.06;10414508;28;20433;-62
2023/02/15 11:46:15;;;;;;;29.50;19.35;;;;;;;5.02;59.09;101140.72;10417456;28;20072;-62
2023/02/15 11:51:20;;;;;;;28.70;18.80;;;;;;;5.14;58.68;101135.31;10419463;28;20049;-62
2023/02/15 11:56:25;;;;;;;27.23;17.58;;;;;;;5.42;58.59;101127.84;10420633;28;20049;-62
2023/02/15 12:01:45;;;;;;;28.33;19.17;;;;;;;5.29;57.81;101122.03;10430845;28;20057;-62
2023/02/15 12:07:15;;;;;;;27.33;17.90;;;;;;;5.22;57.81;101120.47;10432475;28;20045;-62
2023/02/15 12:12:22;;;;;;;27.05;17.67;;;;;;;5.13;58.53;101109.38;10433539;28;20045;-61
2023/02/15 12:17:27;;;;;;;24.83;17.08;;;;;;;5.08;58.54;101100.84;10433900;28;20468;-62
2023/02/15 12:22:32;;;;;;;25.25;17.08;;;;;;;5.07;58.62;101091.34;10432635;28;20457;-62
2023/02/15 12:27:35;;;;;;;23.88;16.75;;;;;;;5.13;58.30;101093.81;10433773;28;20593;-62
2023/02/15 12:33:04;;;;;;;24.50;16.63;;;;;;;5.31;57.62;101080.53;10431785;28;20076;-62
2023/02/15 12:38:09;;;;;;;24.48;16.35;;;;;;;5.57;57.52;101079.06;10429019;28;20627;-62
2023/02/15 12:43:30;;;;;;;26.52;16.48;;;;;;;5.61;57.82;101072.09;10425316;28;20587;-62
2023/02/15 12:48:32;;;;;;;28.75;16.73;;;;;;;5.77;57.38;101057.03;10424935;28;20060;-62
2023/02/15 12:53:35;;;;;;;25.08;16.60;;;;;;;5.78;57.61;101056.16;10426653;28;20068;-62
2023/02/15 12:58:41;;;;;;;23.67;16.02;;;;;;;5.69;57.73;101046.84;10427007;28;20052;-62
2023/02/15 13:04:00;;;;;;;22.75;16.13;;;;;;;5.55;57.80;101043.69;10457857;28;20519;-62
2023/02/15 13:09:30;;;;;;;21.40;14.80;;;;;;;5.48;58.08;101034.31;10424677;28;20052;-62
2023/02/15 13:14:33;;;;;;;;;;;;;;;5.18;58.69;101034.97;10425288;28;20103;-62
2023/02/15 13:20:09;;;;;;;25.48;15.90;;;;;;;5.29;58.53;101022.63;10427664;28;20296;-62
2023/02/15 13:25:39;;;;;;;20.38;14.23;;;;;;;5.45;58.23;101024.03;10414883;28;20497;-62
2023/02/15 13:30:47;;;;;;;24.05;15.70;;;;;;;5.54;58.41;101013.44;10425410;28;20048;-62
2023/02/15 13:36:00;;;;;;;21.27;14.05;;;;;;;5.62;58.24;101008.91;10420366;28;20048;-62
2023/02/15 13:41:09;;;;;;;21.38;15.00;;;;;;;5.86;58.24;100997.97;10428668;28;20060;-62
2023/02/15 13:46:18;;;;;;;23.13;15.30;;;;;;;5.85;58.33;100985.91;10422808;28;20537;-62
2023/02/15 13:51:45;;;;;;;19.42;14.02;;;;;;;6.03;57.87;100980.25;10427590;28;20701;-62
2023/02/15 13:57:16;;;;;;;21.58;14.48;;;;;;;6.15;57.54;100974.75;10421992;28;20405;-62
2023/02/15 14:02:18;;;;;;;19.90;14.73;;;;;;;6.30;57.90;100964.03;10425971;28;20063;-61
2023/02/15 14:07:42;;;;;;;20.83;14.45;;;;;;;6.50;56.90;100962.63;10421811;28;20128;-62
2023/02/15 14:13:05;;;;;;;21.60;15.07;;;;;;;6.57;57.52;100956.38;10418429;28;20056;-61
2023/02/15 14:18:13;;;;;;;21.42;14.23;;;;;;;6.68;57.59;100954.31;10422771;28;20045;-62
2023/02/15 14:23:30;;;;;;;21.83;13.85;;;;;;;6.78;57.18;100953.19;10422620;28;21165;-61
2023/02/15 14:28:58;;;;;;;21.50;14.80;;;;;;;6.82;56.91;100953.06;10425489;28;20048;-61
2023/02/15 14:34:00;;;;;;;23.05;14.77;;;;;;;6.78;57.28;100960.97;10454569;28;20710;-62
2023/02/15 14:45:01;;;;;;;23.70;15.48;;;;;;;6.68;56.98;100950.00;10422548;28;20052;-61
2023/02/15 14:50:33;;;;;;;24.25;16.27;;;;;;;6.65;57.15;100947.50;10418844;28;20080;-62
2023/02/15 14:55:36;;;;;;;;;;;;;;;6.31;57.60;100941.47;10420128;28;20056;-61
2023/02/15 15:00:40;;;;;;;25.35;16.23;;;;;;;6.56;57.24;100939.94;10414189;28;20028;-62
2023/02/15 15:05:52;;;;;;;25.17;17.52;;;;;;;6.52;57.38;100942.66;10420228;28;20045;-62
2023/02/15 15:10:55;;;;;;;26.88;18.63;;;;;;;6.55;57.16;100942.59;10422991;28;20055;-62
2023/02/15 15:16:35;;;;;;;28.45;19.48;;;;;;;6.25;57.36;100942.50;10418390;28;20103;-62
2023/02/15 15:21:53;;;;;;;27.15;19.40;;;;;;;6.17;57.50;100953.94;10421330;28;20064;-61
2023/02/15 15:27:33;;;;;;;32.00;20.48;;;;;;;6.15;57.76;100953.97;10419408;28;20049;-61
2023/02/15 15:32:35;;;;;;;29.55;19.17;;;;;;;6.21;57.75;100950.38;10427691;28;20429;-61
2023/02/15 15:37:52;;;;;;;28.02;19.58;;;;;;;6.15;57.87;100932.34;10428069;28;20045;-62
2023/02/15 15:43:27;;;;;;;29.08;19.63;;;;;;;6.02;57.82;100937.00;10430450;28;20060;-62
2023/02/15 15:48:37;;;;;;;26.10;18.80;;;;;;;5.78;58.62;100932.41;10423762;28;20048;-61
2023/02/15 15:53:48;;;;;;;31.08;20.58;;;;;;;5.59;59.00;100936.34;10419942;28;20045;-62
2023/02/15 15:58:55;;;;;;;31.83;19.58;;;;;;;5.49;59.27;100940.06;10425220;28;20450;-61
2023/02/15 16:03:58;;;;;;;26.90;19.00;;;;;;;5.36;59.27;100942.06;10422379;28;20049;-62
2023/02/15 16:09:22;;;;;;;31.48;20.92;;;;;;;5.13;59.58;100940.84;10414523;28;20056;-63
2023/02/15 16:14:30;;;;;;;28.88;20.20;;;;;;;4.96;59.90;100940.38;10369863;28;20057;-62
2023/02/15 16:19:40;;;;;;;30.80;19.98;;;;;;;4.80;60.38;100946.75;10419916;28;20059;-63
2023/02/15 16:24:49;;;;;;;;;;;;;;;4.30;61.71;100943.38;10419523;28;20053;-62
2023/02/15 16:29:51;;;;;;;28.33;20.38;;;;;;;4.15;61.40;100951.41;10419615;28;19975;-62
2023/02/15 16:35:01;;;;;;;32.88;22.13;;;;;;;3.94;61.73;100956.97;10422552;28;20072;-62
2023/02/15 16:40:04;;;;;;;36.10;23.00;;;;;;;3.79;61.96;100957.16;10422131;28;20049;-62
2023/02/15 16:45:16;;;;;;;35.15;23.70;;;;;;;3.61;62.66;100957.47;10416508;28;20059;-62
2023/02/15 16:50:24;;;;;;;35.13;22.63;;;;;;;3.43;62.89;100976.69;10417875;28;20136;-62
2023/02/15 16:55:32;;;;;;;36.50;23.38;;;;;;;3.27;63.17;100976.94;10419701;28;20071;-62
2023/02/15 17:00:40;;;;;;;35.33;22.83;;;;;;;3.10;63.54;100986.63;10418062;28;20049;-62
2023/02/15 17:05:58;;;;;;;37.35;22.42;;;;;;;2.88;64.30;100988.63;10421482;28;20057;-62
2023/02/15 17:11:05;;;;;;;36.80;23.55;;;;;;;2.81;63.97;100981.78;10428568;28;20086;-62
2023/02/15 17:16:26;;;;;;;38.55;23.50;;;;;;;2.58;64.91;100983.78;10417684;28;20844;-62
2023/02/15 17:21:35;;;;;;;39.42;24.48;;;;;;;2.49;64.72;100991.63;10420104;28;20052;-62
2023/02/15 17:26:37;;;;;;;41.47;25.73;;;;;;;2.36;64.98;100998.63;10416139;28;20041;-62
2023/02/15 17:31:39;;;;;;;42.88;25.98;;;;;;;2.15;65.42;100998.84;10419815;28;20044;-62
2023/02/15 17:36:58;;;;;;;47.85;26.08;;;;;;;1.98;66.29;100998.97;10419312;28;20130;-62
2023/02/15 17:42:00;;;;;;;41.17;26.35;;;;;;;1.91;65.76;100992.13;10416274;28;20409;-63
2023/02/15 17:47:03;;;;;;;49.13;27.88;;;;;;;1.79;66.04;101006.84;10420451;28;20143;-62
2023/02/15 17:52:05;;;;;;;52.97;28.20;;;;;;;1.72;66.23;100998.31;10419088;28;20516;-62
2023/02/15 17:57:14;;;;;;;46.13;27.23;;;;;;;1.62;66.68;100996.66;10452645;28;20056;-62
2023/02/15 18:12:59;;;;;;;48.63;29.48;;;;;;;1.33;66.96;100994.25;10419707;28;20068;-63
2023/02/15 18:18:01;;;;;;;53.28;29.25;;;;;;;1.31;66.86;100996.00;10422906;28;20053;-63
2023/02/15 18:23:02;;;;;;;50.90;29.08;;;;;;;1.34;67.23;101001.13;10419521;28;20580;-63
2023/02/15 18:28:05;;;;;;;49.38;29.38;;;;;;;1.42;66.86;101003.63;10420298;28;20048;-62
2023/02/15 18:33:38;;;;;;;47.60;29.00;;;;;;;1.39;67.47;101003.69;10420383;28;20052;-63
2023/02/15 18:38:40;;;;;;;49.60;28.83;;;;;;;1.49;67.06;100994.16;10420901;28;20126;-63
2023/02/15 18:43:42;;;;;;;52.90;29.77;;;;;;;1.55;66.89;101000.13;10417246;28;20079;-63
2023/02/15 18:48:47;;;;;;;46.20;27.98;;;;;;;1.67;66.72;100988.88;10419367;28;20056;-63
2023/02/15 18:53:52;;;;;;;47.33;28.23;;;;;;;1.64;66.39;100997.50;10416929;28;20056;-62
2023/02/15 18:58:54;;;;;;;46.90;28.75;;;;;;;1.57;66.37;101011.28;10420029;28;20525;-62
2023/02/15 19:03:56;;;;;;;43.55;27.02;;;;;;;1.61;66.41;101017.28;10424445;28;20057;-63
2023/02/15 19:08:57;;;;;;;44.38;27.15;;;;;;;1.55;66.23;101015.59;10422383;28;20055;-62
2023/02/15 19:13:59;;;;;;;48.35;28.45;;;;;;;1.51;66.43;101024.22;10417721;28;20492;-63
2023/02/15 19:19:01;;;;;;;44.40;27.33;;;;;;;1.52;66.33;101027.66;10417173;28;20053;-63
2023/02/15 19:24:07;;;;;;;50.42;29.98;;;;;;;1.47;66.30;101017.38;10415666;28;20056;-62
2023/02/15 19:29:12;;;;;;;44.95;27.70;;;;;;;1.48;66.26;101016.53;10439338;28;20397;-62
2023/02/15 19:34:17;;;;;;;47.13;28.10;;;;;;;1.45;65.98;101016.53;10412625;28;20371;-62
2023/02/15 19:39:25;;;;;;;52.53;28.48;;;;;;;1.41;66.04;101026.84;10411797;28;20045;-63
2023/02/15 19:44:27;;;;;;;48.47;28.40;;;;;;;1.43;66.15;101028.56;10409059;28;20052;-62
2023/02/15 19:49:29;;;;;;;50.72;29.20;;;;;;;1.42;66.09;101029.41;10412570;28;20425;-62
2023/02/15 19:54:33;;;;;;;50.00;28.92;;;;;;;1.38;66.07;101028.59;10415479;28;20045;-62
2023/02/15 19:59:35;;;;;;;53.55;28.88;;;;;;;1.36;66.10;101026.88;10416644;28;20059;-62
2023/02/15 20:04:37;;;;;;;48.97;28.55;;;;;;;1.29;65.86;101027.78;10416494;28;20064;-63
2023/02/15 20:09:40;;;;;;;46.45;27.98;;;;;;;1.26;66.01;101031.22;10451630;28;20187;-63
2023/02/15 20:14:42;;;;;;;55.90;29.70;;;;;;;1.21;65.88;101025.25;10420084;28;20041;-63
2023/02/15 20:19:44;;;;;;;50.55;27.75;;;;;;;1.15;65.68;101030.44;10426439;28;20045;-63
2023/02/15 20:24:46;;;;;;;61.70;31.90;;;;;;;1.05;65.62;101039.06;10428412;28;20416;-63
2023/02/15 20:29:49;;;;;;;55.63;29.98;;;;;;;1.07;65.92;101039.91;10426908;28;20048;-63
2023/02/15 20:34:51;;;;;;;60.50;32.75;;;;;;;1.19;66.01;101033.84;10424168;28;20056;-63
2023/02/15 20:39:54;;;;;;;54.10;30.88;;;;;;;1.37;65.77;101036.34;10424947;28;20049;-63
2023/02/15 20:44:56;;;;;;;54.17;31.25;;;;;;;1.48;65.48;101031.13;10427140;28;20045;-63
2023/02/15 20:49:58;;;;;;;43.72;27.45;;;;;;;1.56;65.48;101031.94;10424676;28;20045;-62
2023/02/15 20:55:00;;;;;;;46.38;28.08;;;;;;;1.57;65.24;101036.22;10423285;28;20048;-63
2023/02/15 21:00:03;;;;;;;46.03;28.98;;;;;;;1.59;65.10;101031.91;10419457;28;20048;-63
2023/02/15 21:05:26;;;;;;;48.55;28.50;;;;;;;1.67;65.31;101045.59;10423463;28;20053;-63
2023/02/15 21:10:33;;;;;;;47.60;28.58;;;;;;;1.80;64.97;101042.97;10419049;28;20115;-62
2023/02/15 21:15:40;;;;;;;50.72;30.15;;;;;;;1.84;65.29;101036.06;10435051;28;20052;-62
2023/02/15 21:20:46;;;;;;;49.03;29.58;;;;;;;1.95;64.91;101042.00;10425202;28;20057;-63
2023/02/15 21:25:48;;;;;;;50.20;30.35;;;;;;;1.94;64.88;101042.84;10417819;28;20053;-63
2023/02/15 21:30:51;;;;;;;48.40;30.15;;;;;;;1.98;64.58;101036.81;10421664;28;21127;-62
2023/02/15 21:35:56;;;;;;;50.05;29.23;;;;;;;2.08;64.51;101038.44;10423418;28;20424;-63
2023/02/15 21:47:49;;;;;;;49.95;30.20;;;;;;;2.15;64.53;101037.53;10419114;28;20057;-63
2023/02/15 21:57:02;;;;;;;60.65;35.10;;;;;;;2.39;64.50;101018.41;10417336;28;20056;-63
2023/02/15 22:02:25;;;;;;;62.35;34.42;;;;;;;2.44;64.58;101026.97;10421329;28;20064;-63
2023/02/15 22:07:27;;;;;;;65.63;34.22;;;;;;;2.38;64.61;101027.03;10421552;28;20096;-62
2023/02/15 22:12:29;;;;;;;68.95;34.60;;;;;;;2.28;64.98;101028.81;10420793;28;20044;-62
2023/02/15 22:17:33;;;;;;;46.85;29.13;;;;;;;2.34;64.88;101026.19;10418646;28;20383;-62
2023/02/15 22:22:34;;;;;;;92.53;34.45;;;;;;;2.37;65.08;101025.31;10421144;28;20056;-62
2023/02/15 22:27:39;;;;;;;119.82;38.28;;;;;;;2.34;64.98;101020.19;10417249;28;20060;-62
2023/02/15 22:32:40;;;;;;;190.40;40.15;;;;;;;2.21;65.33;101024.59;10415624;28;20041;-62
2023/02/15 22:37:42;;;;;;;360.52;43.47;;;;;;;1.95;65.44;101027.34;10419900;28;20052;-62
2023/02/15 22:42:47;;;;;;;97.13;35.28;;;;;;;1.85;66.26;101027.44;10416173;28;20048;-62
2023/02/15 22:47:52;;;;;;;159.20;37.88;;;;;;;1.89;65.92;101026.56;10418686;28;20055;-62
2023/02/15 22:52:54;;;;;;;93.25;37.25;;;;;;;1.81;66.32;101030.91;10417462;28;20045;-62
2023/02/15 22:57:56;;;;;;;140.98;37.80;;;;;;;1.88;66.31;101023.13;10422055;28;20053;-62
2023/02/15 23:02:58;;;;;;;225.75;45.72;;;;;;;2.00;66.13;101017.88;10415730;28;20060;-63
2023/02/15 23:08:00;;;;;;;187.23;40.45;;;;;;;1.93;66.09;101025.69;10420835;28;20057;-62
2023/02/15 23:13:21;;;;;;;246.23;44.78;;;;;;;1.85;66.38;101014.53;10424265;28;20053;-62
2023/02/15 23:18:33;;;;;;;136.43;39.60;;;;;;;1.85;66.58;101011.97;10419278;28;20055;-63
2023/02/15 23:23:38;;;;;;;118.32;39.15;;;;;;;1.94;66.49;101001.59;10417042;28;20089;-62
2023/02/15 23:28:40;;;;;;;163.70;41.40;;;;;;;1.86;66.64;101001.66;10417047;28;20568;-62
2023/02/15 23:33:42;;;;;;;261.90;41.08;;;;;;;1.84;66.69;100989.63;10415457;28;20063;-62
2023/02/15 23:38:43;;;;;;;257.40;39.38;;;;;;;1.60;66.92;100998.41;10416164;28;20053;-62
2023/02/15 23:43:48;;;;;;;596.65;45.20;;;;;;;1.46;67.07;100994.19;10418695;28;20504;-62
2023/02/15 23:48:51;;;;;;;1077.47;54.75;;;;;;;1.22;67.32;100996.03;10416220;28;20045;-62
2023/02/15 23:53:53;;;;;;;693.10;55.38;;;;;;;1.39;67.49;100990.78;10420687;28;20187;-62
2023/02/15 23:58:54;;;;;;;657.15;49.15;;;;;;;1.39;67.47;100998.53;10422647;28;20041;-62
